Terminal Aerodrome Forecast
Issued by NWS Billings, MT

Home | Current Version | Previous Version | Text Only | Print | Product List | Glossary On
Versions: 1 2 3 4 5 6 7 8 9 10 11 12 13 14 15 16 17 18 19 20 21 22 23 24 25 26 27 28 29 30 31 32 33 34 35 36 37
271
FTUS45 KBYZ 132326
TAFSHR
TAF
KSHR 132326Z 1400/1424 31011KT P6SM VCSH BKN070 WS014/31045KT
      TEMPO 1400/1404 31020G35KT
     FM140600 VRB04KT P6SM FEW150
     FM141600 29013G22KT P6SM VCSH OVC050
     FM141900 31020G35KT P6SM VCSH OVC050
     FM142100 31020G35KT P6SM SCT050=

USA.gov is the U.S. government's official web portal to all federal, state and local government web resources and services.